createdAt,value
2023-05-03T00:01:22.782Z,4.50
2023-05-03T00:03:54.967Z,4.20
2023-05-03T00:06:23.699Z,4.87
2023-05-03T00:08:52.163Z,4.60
2023-05-03T00:11:21.332Z,4.30
2023-05-03T00:13:49.926Z,3.97
2023-05-03T00:16:18.402Z,4.83
2023-05-03T00:18:49.138Z,4.77
2023-05-03T00:21:19.376Z,4.53
2023-05-03T00:23:47.921Z,3.70
2023-05-03T00:26:16.416Z,3.87
2023-05-03T00:28:45.429Z,4.00
2023-05-03T00:31:14.340Z,3.47
2023-05-03T00:33:43.551Z,3.30
2023-05-03T00:36:13.815Z,3.43
2023-05-03T00:38:44.318Z,3.07
2023-05-03T00:41:13.843Z,3.80
2023-05-03T00:43:42.239Z,3.33
2023-05-03T00:46:17.215Z,3.17
2023-05-03T00:48:46.656Z,3.60
2023-05-03T00:51:16.940Z,3.77
2023-05-03T00:53:47.054Z,3.43
2023-05-03T00:56:21.473Z,2.93
2023-05-03T00:58:50.236Z,3.60
2023-05-03T01:01:18.841Z,2.77
2023-05-03T01:03:48.101Z,3.73
2023-05-03T01:06:27.892Z,3.03
2023-05-03T01:09:05.009Z,3.00
2023-05-03T01:11:43.697Z,3.83
2023-05-03T01:14:23.337Z,3.73
2023-05-03T01:16:58.147Z,3.37
2023-05-03T01:19:31.146Z,3.13
2023-05-03T01:22:11.663Z,3.10
2023-05-03T01:24:43.315Z,3.47
2023-05-03T01:27:13.909Z,3.00
2023-05-03T01:29:42.337Z,2.83
2023-05-03T01:32:17.179Z,2.73
2023-05-03T01:34:52.962Z,3.37
2023-05-03T01:37:22.325Z,2.87
2023-05-03T01:39:53.472Z,2.57
2023-05-03T01:42:28.281Z,2.87
2023-05-03T01:44:57.138Z,2.83
2023-05-03T01:47:27.064Z,3.30
2023-05-03T01:49:55.745Z,3.10
2023-05-03T01:52:25.901Z,2.57
2023-05-03T01:54:54.484Z,3.63
2023-05-03T01:57:24.393Z,3.30
2023-05-03T01:59:52.923Z,2.83
2023-05-03T02:02:21.384Z,3.10
2023-05-03T02:04:50.085Z,3.00
2023-05-03T02:07:18.514Z,3.13
2023-05-03T02:09:47.226Z,2.80
2023-05-03T02:12:15.908Z,3.33
2023-05-03T02:14:45.679Z,3.00
2023-05-03T02:17:14.872Z,2.90
2023-05-03T02:19:43.257Z,3.17
2023-05-03T02:22:11.820Z,2.60
2023-05-03T02:24:40.548Z,3.50
2023-05-03T02:27:08.999Z,2.90
2023-05-03T02:29:38.001Z,3.03
2023-05-03T02:32:08.845Z,2.60
2023-05-03T02:34:37.585Z,2.70
2023-05-03T02:37:06.628Z,2.90
2023-05-03T02:39:35.091Z,3.23
2023-05-03T02:42:03.829Z,3.63
2023-05-03T02:44:33.624Z,2.67
2023-05-03T02:47:02.272Z,3.00
2023-05-03T02:49:32.146Z,2.90
2023-05-03T02:52:00.675Z,3.40
2023-05-03T02:54:29.210Z,3.57
2023-05-03T02:56:57.714Z,3.17
2023-05-03T02:59:26.282Z,3.47
2023-05-03T03:01:54.807Z,3.33
2023-05-03T03:04:23.835Z,3.97
2023-05-03T03:06:54.770Z,3.33
2023-05-03T03:09:23.212Z,4.03
2023-05-03T03:11:53.530Z,3.30
2023-05-03T03:14:22.012Z,3.50
2023-05-03T03:16:53.674Z,3.37
2023-05-03T03:19:22.093Z,3.27
2023-05-03T03:21:51.101Z,2.83
2023-05-03T03:24:20.969Z,2.77
2023-05-03T03:26:49.430Z,2.73
2023-05-03T03:29:17.920Z,2.93
2023-05-03T03:31:46.684Z,3.00
2023-05-03T03:34:15.325Z,3.10
2023-05-03T03:36:43.766Z,3.03
2023-05-03T03:39:12.148Z,2.87
2023-05-03T03:41:42.619Z,3.33
2023-05-03T03:44:11.861Z,3.23
2023-05-03T03:46:40.467Z,2.90
2023-05-03T03:49:09.724Z,3.40
2023-05-03T03:51:39.190Z,3.23
2023-05-03T03:54:07.992Z,3.03
2023-05-03T03:56:36.848Z,2.83
2023-05-03T03:59:08.436Z,3.40
2023-05-03T04:01:37.072Z,3.50
2023-05-03T04:04:06.686Z,3.53
2023-05-03T04:06:35.390Z,3.13
2023-05-03T04:09:03.937Z,3.30
2023-05-03T04:11:32.545Z,3.40
2023-05-03T04:14:01.816Z,3.40
2023-05-03T04:16:31.927Z,3.20
2023-05-03T04:19:00.411Z,2.87
2023-05-03T04:21:29.589Z,3.30
2023-05-03T04:23:58.259Z,3.17
2023-05-03T04:26:31.182Z,2.90
2023-05-03T04:29:00.174Z,2.87
2023-05-03T04:31:29.048Z,3.50
2023-05-03T04:33:59.492Z,3.10
2023-05-03T04:36:30.671Z,3.47
2023-05-03T04:38:59.385Z,3.73
2023-05-03T04:41:28.025Z,2.83
2023-05-03T04:43:56.602Z,3.53
2023-05-03T04:46:25.186Z,3.10
2023-05-03T04:48:53.663Z,3.43
2023-05-03T04:51:23.906Z,3.47
2023-05-03T04:53:52.639Z,3.60
2023-05-03T04:56:26.485Z,2.93
2023-05-03T04:58:55.302Z,3.10
2023-05-03T05:01:28.269Z,2.73
2023-05-03T05:03:57.488Z,2.80
2023-05-03T05:06:27.852Z,3.13
2023-05-03T05:08:56.713Z,3.73
2023-05-03T05:11:26.751Z,2.87
2023-05-03T05:13:55.326Z,3.50
2023-05-03T05:16:24.132Z,4.00
2023-05-03T05:18:52.921Z,3.13
2023-05-03T05:21:21.486Z,3.57
2023-05-03T05:23:51.844Z,3.47
2023-05-03T05:26:20.816Z,3.30
2023-05-03T05:28:49.539Z,3.40
2023-05-03T05:31:18.740Z,3.33
2023-05-03T05:33:47.522Z,3.33
2023-05-03T05:36:16.306Z,2.97
2023-05-03T05:38:44.996Z,3.27
2023-05-03T05:41:15.110Z,3.43
2023-05-03T05:43:43.820Z,3.00
2023-05-03T05:46:12.614Z,3.33
2023-05-03T05:48:43.685Z,3.80
2023-05-03T05:51:12.637Z,3.77
2023-05-03T05:53:41.268Z,3.80
2023-05-03T05:56:11.555Z,3.40
2023-05-03T05:58:41.587Z,3.50
2023-05-03T06:01:13.148Z,3.33
2023-05-03T06:03:44.094Z,3.47
2023-05-03T06:06:12.958Z,3.60
2023-05-03T06:08:42.297Z,3.80
2023-05-03T06:11:14.373Z,3.53
2023-05-03T06:13:44.900Z,3.50
2023-05-03T06:16:13.906Z,3.83
2023-05-03T06:18:42.596Z,3.33
2023-05-03T06:21:11.901Z,3.40
2023-05-03T06:23:41.130Z,3.73
2023-05-03T06:26:09.932Z,3.53
2023-05-03T06:28:39.110Z,3.47
2023-05-03T06:31:09.255Z,3.73
2023-05-03T06:33:37.888Z,3.27
2023-05-03T06:36:07.139Z,3.43
2023-05-03T06:38:35.787Z,3.37
2023-05-03T06:41:05.310Z,3.40
2023-05-03T06:43:34.495Z,3.57
2023-05-03T06:46:03.811Z,3.63
2023-05-03T06:48:33.912Z,3.27
2023-05-03T06:51:02.408Z,3.53
2023-05-03T06:53:33.332Z,3.23
2023-05-03T06:56:02.270Z,3.33
2023-05-03T06:58:31.093Z,3.40
2023-05-03T07:01:00.382Z,3.53
2023-05-03T07:03:29.423Z,3.33
2023-05-03T07:05:59.587Z,3.47
2023-05-03T07:08:28.757Z,2.90
2023-05-03T07:10:57.444Z,3.33
2023-05-03T07:13:26.421Z,3.20
2023-05-03T07:15:55.181Z,3.23
2023-05-03T07:18:24.137Z,2.97
2023-05-03T07:20:52.759Z,3.10
2023-05-03T07:23:22.945Z,2.87
2023-05-03T07:25:51.863Z,2.90
2023-05-03T07:28:21.298Z,3.10
2023-05-03T07:30:49.936Z,3.47
2023-05-03T07:33:19.406Z,4.30
2023-05-03T07:35:48.548Z,3.10
2023-05-03T07:38:17.695Z,3.00
2023-05-03T07:40:48.433Z,3.20
2023-05-03T07:43:20.103Z,3.40
2023-05-03T07:45:48.881Z,2.70
2023-05-03T07:48:17.924Z,2.80
2023-05-03T07:50:47.166Z,3.07
2023-05-03T07:53:16.717Z,2.43
2023-05-03T07:55:46.652Z,2.97
2023-05-03T07:58:15.290Z,2.40
2023-05-03T08:00:44.077Z,2.03
2023-05-03T08:03:12.768Z,2.20
2023-05-03T08:05:42.396Z,2.17
2023-05-03T08:08:10.971Z,2.43
2023-05-03T08:10:39.460Z,2.80
2023-05-03T08:13:09.686Z,2.10
2023-05-03T08:15:38.201Z,2.00
2023-05-03T08:18:06.994Z,1.60
2023-05-03T08:20:37.091Z,1.97
2023-05-03T08:23:05.819Z,2.00
2023-05-03T08:25:34.576Z,2.00
2023-05-03T08:28:04.174Z,2.13
2023-05-03T08:30:34.755Z,1.50
2023-05-03T08:33:03.912Z,1.60
2023-05-03T08:35:32.338Z,1.73
2023-05-03T08:38:00.873Z,1.97
2023-05-03T08:40:30.146Z,1.63
2023-05-03T08:43:08.756Z,1.70
2023-05-03T08:45:38.707Z,1.60
2023-05-03T08:48:08.978Z,1.43
2023-05-03T08:50:42.834Z,1.60
2023-05-03T08:53:11.646Z,1.80
2023-05-03T08:55:40.882Z,1.80
2023-05-03T08:58:13.300Z,1.83
2023-05-03T09:00:45.482Z,1.60
2023-05-03T09:03:14.124Z,1.90
2023-05-03T09:05:44.580Z,1.63
2023-05-03T09:08:14.919Z,1.40
2023-05-03T09:10:44.085Z,2.27
2023-05-03T09:13:13.272Z,1.90
2023-05-03T09:15:45.600Z,1.70
2023-05-03T09:18:17.615Z,1.97
2023-05-03T09:20:52.667Z,1.80
2023-05-03T09:23:31.757Z,1.60
2023-05-03T09:26:01.049Z,1.73
2023-05-03T09:28:30.028Z,1.73
2023-05-03T09:31:11.453Z,2.27
2023-05-03T09:33:41.360Z,2.80
2023-05-03T09:36:11.232Z,1.67
2023-05-03T09:38:39.728Z,2.17
2023-05-03T09:41:08.435Z,1.93
2023-05-03T09:43:37.559Z,2.00
2023-05-03T09:46:14.611Z,1.83
2023-05-03T09:48:43.682Z,1.57
2023-05-03T09:51:12.917Z,1.67
2023-05-03T09:53:42.978Z,1.63
2023-05-03T09:56:14.172Z,1.97
2023-05-03T09:58:44.654Z,1.90
2023-05-03T10:01:16.463Z,2.40
2023-05-03T10:03:47.799Z,2.00
2023-05-03T10:06:27.033Z,1.80
2023-05-03T10:09:02.385Z,1.90
2023-05-03T10:11:31.170Z,2.27
2023-05-03T10:14:00.042Z,2.20
2023-05-03T10:16:33.963Z,2.83
2023-05-03T10:19:16.480Z,2.30
2023-05-03T10:21:57.284Z,2.37
2023-05-03T10:24:26.097Z,1.87
2023-05-03T10:26:57.512Z,1.77
2023-05-03T10:29:53.016Z,2.57
2023-05-03T10:32:44.874Z,1.80
2023-05-03T10:35:16.762Z,1.80
2023-05-03T10:37:47.308Z,1.90
2023-05-03T10:40:18.180Z,2.00
2023-05-03T10:42:51.223Z,3.23
2023-05-03T10:45:25.629Z,2.60
2023-05-03T10:48:25.620Z,2.10
2023-05-03T10:50:54.546Z,1.70
2023-05-03T10:53:40.505Z,1.90
2023-05-03T10:56:12.639Z,1.93
2023-05-03T10:58:44.483Z,1.93
2023-05-03T11:01:15.129Z,2.13
2023-05-03T11:03:53.596Z,2.17
2023-05-03T11:06:33.559Z,2.10
2023-05-03T11:09:04.521Z,1.60
2023-05-03T11:11:33.129Z,1.80
2023-05-03T11:14:02.393Z,2.00
2023-05-03T11:16:31.466Z,1.80
2023-05-03T11:19:01.978Z,2.50
2023-05-03T11:21:31.348Z,2.03
2023-05-03T11:24:01.930Z,1.87
2023-05-03T11:26:39.487Z,1.60
2023-05-03T11:29:11.093Z,1.87
2023-05-03T11:31:43.563Z,1.80
2023-05-03T11:34:14.817Z,1.97
2023-05-03T11:36:44.015Z,1.63
2023-05-03T11:39:14.818Z,1.77
2023-05-03T11:41:43.384Z,1.80
2023-05-03T11:44:17.885Z,2.40
2023-05-03T11:46:48.300Z,1.90
2023-05-03T11:49:21.864Z,2.20
2023-05-03T11:51:53.648Z,1.90
2023-05-03T11:54:26.968Z,2.20
2023-05-03T11:56:59.620Z,1.80
2023-05-03T11:59:39.852Z,2.17
2023-05-03T12:02:09.706Z,2.20
2023-05-03T12:04:43.554Z,1.80
2023-05-03T12:07:14.944Z,1.83
2023-05-03T12:09:48.550Z,1.90
2023-05-03T12:12:27.701Z,1.93
2023-05-03T12:15:03.806Z,1.90
2023-05-03T12:17:38.819Z,1.97
2023-05-03T12:22:51.952Z,2.20
2023-05-03T12:25:21.711Z,2.47
2023-05-03T12:28:12.347Z,1.50
2023-05-03T12:30:45.847Z,1.67
2023-05-03T12:33:16.494Z,1.87
2023-05-03T12:35:48.264Z,1.93
2023-05-03T12:38:18.099Z,1.67
2023-05-03T12:40:49.373Z,1.90
2023-05-03T12:43:18.313Z,1.80
2023-05-03T12:45:53.104Z,1.60
2023-05-03T12:48:27.586Z,1.83
2023-05-03T12:51:17.165Z,1.70
2023-05-03T12:53:47.769Z,2.23
2023-05-03T12:56:17.072Z,1.83
2023-05-03T13:02:19.204Z,1.57
2023-05-03T13:06:57.757Z,1.60
2023-05-03T13:12:34.339Z,1.67
2023-05-03T13:15:04.272Z,1.77
2023-05-03T13:17:36.015Z,1.80
2023-05-03T13:20:08.491Z,1.83
2023-05-03T13:22:47.031Z,1.60
2023-05-03T13:25:15.776Z,2.00
2023-05-03T13:27:44.357Z,1.90
2023-05-03T13:30:14.697Z,1.80
2023-05-03T13:32:43.323Z,1.70
2023-05-03T13:35:12.573Z,1.47
2023-05-03T13:37:41.195Z,1.93
2023-05-03T13:40:13.156Z,1.90
2023-05-03T13:42:41.650Z,1.97
2023-05-03T13:45:11.412Z,1.90
2023-05-03T13:48:04.724Z,2.17
2023-05-03T13:50:31.530Z,1.60
2023-05-03T13:53:00.165Z,1.93
2023-05-03T13:55:30.088Z,11.20
2023-05-03T13:57:58.821Z,1.67
2023-05-03T14:00:27.428Z,1.80
2023-05-03T14:02:56.713Z,2.10
2023-05-03T14:05:25.148Z,1.70
2023-05-03T14:07:54.201Z,1.87
2023-05-03T14:10:22.956Z,1.60
2023-05-03T14:12:53.313Z,1.73
2023-05-03T14:15:22.267Z,1.87
2023-05-03T14:17:51.230Z,1.93
2023-05-03T14:20:20.199Z,1.77
2023-05-03T14:22:48.739Z,1.80
2023-05-03T14:25:17.560Z,1.80
2023-05-03T14:27:46.151Z,1.80
2023-05-03T14:30:17.404Z,1.77
2023-05-03T14:32:46.115Z,2.47
2023-05-03T14:35:14.731Z,1.93
2023-05-03T14:37:43.305Z,1.60
2023-05-03T14:40:13.075Z,1.80
2023-05-03T14:42:41.646Z,1.97
2023-05-03T14:45:12.833Z,1.80
2023-05-03T14:47:43.275Z,1.70
2023-05-03T14:50:12.507Z,2.00
2023-05-03T14:52:40.968Z,1.37
2023-05-03T14:55:11.242Z,1.83
2023-05-03T14:57:39.776Z,1.60
2023-05-03T15:00:14.558Z,1.90
2023-05-03T15:02:44.668Z,1.87
2023-05-03T15:05:13.920Z,1.70
2023-05-03T15:07:42.397Z,1.77
2023-05-03T15:10:11.555Z,1.77
2023-05-03T15:12:40.446Z,1.60
2023-05-03T15:15:12.279Z,1.37
2023-05-03T15:17:40.839Z,1.83
2023-05-03T15:20:14.100Z,3.27
2023-05-03T15:22:42.562Z,2.37
2023-05-03T15:25:11.576Z,1.60
2023-05-03T15:27:40.368Z,1.70
2023-05-03T15:30:12.366Z,1.60
2023-05-03T15:32:40.936Z,1.90
2023-05-03T15:35:11.424Z,1.50
2023-05-03T15:37:40.043Z,1.90
2023-05-03T15:40:11.839Z,1.80
2023-05-03T15:42:40.716Z,1.53
2023-05-03T15:45:10.028Z,3.07
2023-05-03T15:47:39.072Z,1.80
2023-05-03T15:50:09.114Z,1.70
2023-05-03T15:52:39.247Z,1.70
2023-05-03T15:55:10.011Z,1.93
2023-05-03T15:57:38.570Z,1.97
2023-05-03T16:00:15.271Z,2.13
2023-05-03T16:02:44.185Z,1.90
2023-05-03T16:05:13.467Z,1.93
2023-05-03T16:07:43.396Z,1.67
2023-05-03T16:10:12.063Z,2.00
2023-05-03T16:12:41.126Z,1.80
2023-05-03T16:15:12.579Z,1.60
2023-05-03T16:17:41.209Z,1.80
2023-05-03T16:20:11.827Z,1.90
2023-05-03T16:22:40.389Z,1.90
2023-05-03T16:25:11.479Z,2.03
2023-05-03T16:27:41.798Z,1.70
2023-05-03T16:30:11.010Z,1.60
2023-05-03T16:32:41.521Z,1.80
2023-05-03T16:35:11.078Z,2.07
2023-05-03T16:37:41.032Z,1.90
2023-05-03T16:40:11.714Z,1.60
2023-05-03T16:42:41.430Z,1.40
2023-05-03T16:45:11.243Z,3.00
2023-05-03T16:47:41.145Z,2.37
2023-05-03T16:50:10.818Z,1.80
2023-05-03T16:52:41.567Z,2.17
2023-05-03T16:55:13.626Z,1.80
2023-05-03T16:57:42.970Z,2.13
2023-05-03T17:00:12.777Z,2.47
2023-05-03T17:02:42.300Z,1.90
2023-05-03T17:05:14.502Z,1.93
2023-05-03T17:07:43.208Z,2.00
2023-05-03T17:10:13.504Z,1.70
2023-05-03T17:12:42.215Z,1.87
2023-05-03T17:15:11.697Z,1.90
2023-05-03T17:17:40.650Z,1.87
2023-05-03T17:20:10.944Z,2.13
2023-05-03T17:22:39.518Z,2.10
2023-05-03T17:25:09.875Z,1.67
2023-05-03T17:27:40.332Z,2.73
2023-05-03T17:30:11.290Z,1.77
2023-05-03T17:32:40.144Z,2.97
2023-05-03T17:35:11.327Z,2.80
2023-05-03T17:37:39.995Z,2.87
2023-05-03T17:40:09.539Z,2.23
2023-05-03T17:42:39.547Z,2.10
2023-05-03T17:45:10.000Z,3.00
2023-05-03T17:47:38.520Z,2.07
2023-05-03T17:50:08.212Z,1.90
2023-05-03T17:52:36.755Z,2.30
2023-05-03T17:55:05.670Z,2.03
2023-05-03T17:57:34.180Z,2.00
2023-05-03T18:00:06.039Z,2.60
2023-05-03T18:02:34.872Z,2.30
2023-05-03T18:05:04.118Z,3.50
2023-05-03T18:07:32.604Z,3.27
2023-05-03T18:10:02.327Z,3.30
2023-05-03T18:12:31.215Z,3.40
2023-05-03T18:15:00.852Z,3.40
2023-05-03T18:17:31.732Z,3.27
2023-05-03T18:20:00.254Z,3.67
2023-05-03T18:22:29.394Z,4.17
2023-05-03T18:25:02.094Z,3.30
2023-05-03T18:27:30.867Z,3.80
2023-05-03T18:29:59.530Z,4.50
2023-05-03T18:32:28.143Z,3.67
2023-05-03T18:34:58.444Z,3.67
2023-05-03T18:37:27.247Z,3.70
2023-05-03T18:39:55.676Z,3.27
2023-05-03T18:42:24.929Z,4.30
2023-05-03T18:44:53.927Z,7.00
2023-05-03T18:47:25.419Z,10.93
2023-05-03T18:49:54.313Z,11.23
2023-05-03T18:52:24.730Z,12.47
2023-05-03T18:54:53.196Z,13.80
2023-05-03T18:57:21.977Z,12.67
2023-05-03T18:59:59.866Z,11.40
2023-05-03T19:02:31.651Z,11.00
2023-05-03T19:05:01.216Z,10.47
2023-05-03T19:07:32.031Z,10.80
2023-05-03T19:10:01.384Z,9.53
2023-05-03T19:12:30.144Z,9.33
2023-05-03T19:14:59.176Z,8.27
2023-05-03T19:17:30.739Z,9.50
2023-05-03T19:20:00.220Z,8.70
2023-05-03T19:22:28.864Z,9.03
2023-05-03T19:25:04.121Z,8.50
2023-05-03T19:27:33.735Z,9.77
2023-05-03T19:30:02.614Z,11.07
2023-05-03T19:32:35.525Z,9.50
2023-05-03T19:35:08.602Z,7.97
2023-05-03T19:37:37.165Z,8.60
2023-05-03T19:40:08.736Z,8.70
2023-05-03T19:42:38.073Z,9.83
2023-05-03T19:45:07.552Z,10.17
2023-05-03T19:47:36.278Z,10.07
2023-05-03T19:50:05.410Z,9.60
2023-05-03T19:52:35.331Z,9.70
2023-05-03T19:55:07.442Z,10.00
2023-05-03T19:57:37.644Z,8.00
2023-05-03T20:00:07.588Z,8.70
2023-05-03T20:02:37.512Z,9.37
2023-05-03T20:05:07.215Z,11.63
2023-05-03T20:07:35.860Z,12.90
2023-05-03T20:10:05.836Z,13.33
2023-05-03T20:12:34.656Z,11.07
2023-05-03T20:15:07.225Z,11.43
2023-05-03T20:17:36.741Z,12.63
2023-05-03T20:20:11.030Z,14.37
2023-05-03T20:22:39.638Z,13.90
2023-05-03T20:25:09.143Z,17.63
2023-05-03T20:27:37.952Z,15.80
2023-05-03T20:30:09.400Z,17.40
2023-05-03T20:32:39.331Z,21.10
2023-05-03T20:35:11.708Z,21.27
2023-05-03T20:37:40.667Z,27.17
2023-05-03T20:40:11.447Z,29.57
2023-05-03T20:42:39.879Z,28.97
2023-05-03T20:45:10.674Z,26.23
2023-05-03T20:47:39.227Z,29.17
2023-05-03T20:50:09.743Z,29.43
2023-05-03T20:52:38.662Z,36.43
2023-05-03T20:55:07.668Z,31.57
2023-05-03T20:57:36.630Z,26.37
2023-05-03T21:00:05.576Z,23.67
2023-05-03T21:02:35.897Z,21.80
2023-05-03T21:05:05.482Z,28.47
2023-05-03T21:07:34.042Z,33.57
2023-05-03T21:10:02.689Z,32.33
2023-05-03T21:12:31.587Z,34.70
2023-05-03T21:14:59.974Z,30.00
2023-05-03T21:17:28.506Z,28.47
2023-05-03T21:19:58.474Z,23.83
2023-05-03T21:22:27.040Z,23.00
2023-05-03T21:24:55.752Z,23.30
2023-05-03T21:27:24.251Z,22.93
2023-05-03T21:29:53.001Z,23.90
2023-05-03T21:32:21.813Z,22.33
2023-05-03T21:34:50.948Z,20.43
2023-05-03T21:37:20.880Z,20.50
2023-05-03T21:40:00.473Z,18.67
2023-05-03T21:42:30.421Z,22.60
2023-05-03T21:44:59.775Z,22.97
2023-05-03T21:47:29.405Z,21.07
2023-05-03T21:49:57.998Z,19.57
2023-05-03T21:52:28.254Z,17.77
2023-05-03T21:54:56.839Z,19.20
2023-05-03T21:57:25.471Z,20.60
2023-05-03T21:59:55.106Z,20.80
2023-05-03T22:02:24.081Z,20.57
2023-05-03T22:04:52.969Z,20.17
2023-05-03T22:07:21.475Z,21.80
2023-05-03T22:09:51.710Z,26.73
2023-05-03T22:12:24.094Z,41.67
2023-05-03T22:14:53.339Z,59.47
2023-05-03T22:17:21.886Z,60.83
2023-05-03T22:19:50.768Z,76.87
2023-05-03T22:22:19.495Z,94.83
2023-05-03T22:24:47.964Z,102.57
2023-05-03T22:27:17.902Z,101.10
2023-05-03T22:29:46.609Z,86.30
2023-05-03T22:32:15.165Z,72.57
2023-05-03T22:34:44.755Z,51.77
2023-05-03T22:37:13.397Z,52.57
2023-05-03T22:39:41.932Z,52.77
2023-05-03T22:42:10.357Z,49.23
2023-05-03T22:44:40.167Z,46.07
2023-05-03T22:47:08.548Z,39.90
2023-05-03T22:49:37.249Z,39.77
2023-05-03T22:52:05.864Z,36.57
2023-05-03T22:54:34.273Z,35.63
2023-05-03T22:57:02.690Z,32.90
2023-05-03T22:59:31.625Z,33.30
2023-05-03T23:02:01.534Z,40.40
2023-05-03T23:04:29.919Z,46.43
2023-05-03T23:06:58.478Z,39.93
2023-05-03T23:09:27.243Z,40.67
2023-05-03T23:11:56.901Z,38.67
2023-05-03T23:14:25.695Z,35.63
2023-05-03T23:16:54.199Z,33.07
2023-05-03T23:19:24.096Z,31.87
2023-05-03T23:21:52.792Z,29.10
2023-05-03T23:24:21.456Z,26.40
2023-05-03T23:26:49.878Z,23.70
2023-05-03T23:29:18.733Z,24.90
2023-05-03T23:31:47.426Z,22.90
2023-05-03T23:34:16.565Z,20.97
2023-05-03T23:36:46.489Z,21.20
2023-05-03T23:39:15.653Z,19.80
2023-05-03T23:41:44.064Z,19.97
2023-05-03T23:44:12.758Z,18.87
2023-05-03T23:46:41.352Z,16.20
2023-05-03T23:49:10.006Z,16.13
2023-05-03T23:51:38.474Z,14.87
2023-05-03T23:54:08.845Z,14.73
2023-05-03T23:56:37.303Z,15.13
2023-05-03T23:59:06.437Z,15.10
